createdAt,value
2023-05-09T00:01:27.681Z,75.86
2023-05-09T00:03:54.613Z,75.31
2023-05-09T00:06:21.727Z,74.75
2023-05-09T00:11:17.008Z,75.84
2023-05-09T00:13:44.391Z,76.23
2023-05-09T00:16:11.358Z,75.96
2023-05-09T00:18:38.279Z,74.65
2023-05-09T00:21:05.262Z,75.25
2023-05-09T00:23:32.111Z,75.51
2023-05-09T00:25:59.271Z,74.45
2023-05-09T00:28:27.583Z,74.32
2023-05-09T00:30:54.378Z,75.25
2023-05-09T00:33:21.342Z,75.83
2023-05-09T00:35:48.695Z,75.05
2023-05-09T00:38:15.666Z,75.11
2023-05-09T00:40:42.581Z,74.90
2023-05-09T00:43:09.463Z,74.20
2023-05-09T00:45:37.744Z,75.73
2023-05-09T00:48:05.222Z,74.88
2023-05-09T00:50:32.267Z,74.85
2023-05-09T00:52:59.520Z,73.79
2023-05-09T00:55:27.316Z,74.74
2023-05-09T00:58:12.691Z,74.30
2023-05-09T01:00:41.763Z,74.34
2023-05-09T01:03:09.225Z,74.49
2023-05-09T01:05:42.845Z,75.04
2023-05-09T01:08:15.129Z,75.00
2023-05-09T01:10:45.780Z,74.91
2023-05-09T01:13:18.371Z,74.59
2023-05-09T01:15:52.593Z,75.28
2023-05-09T01:18:29.904Z,74.50
2023-05-09T01:21:01.906Z,74.65
2023-05-09T01:23:51.260Z,74.86
2023-05-09T01:26:22.148Z,74.95
2023-05-09T01:29:10.980Z,76.41
2023-05-09T01:31:40.418Z,75.18
2023-05-09T01:34:08.793Z,76.85
2023-05-09T01:36:35.617Z,76.06
2023-05-09T01:39:02.862Z,75.91
2023-05-09T01:41:31.913Z,76.21
2023-05-09T01:44:01.030Z,76.31
2023-05-09T01:46:29.551Z,76.83
2023-05-09T01:48:57.855Z,76.68
2023-05-09T01:51:24.688Z,76.98
2023-05-09T01:53:51.894Z,76.53
2023-05-09T01:56:19.869Z,77.54
2023-05-09T01:58:48.458Z,77.33
2023-05-09T02:01:15.781Z,78.50
2023-05-09T02:03:45.600Z,77.43
2023-05-09T02:06:12.996Z,77.43
2023-05-09T02:08:40.115Z,78.09
2023-05-09T02:11:07.722Z,77.83
2023-05-09T02:13:34.885Z,77.47
2023-05-09T02:16:01.872Z,77.97
2023-05-09T02:18:29.559Z,77.17
2023-05-09T02:20:57.982Z,76.92
2023-05-09T02:23:24.728Z,76.80
2023-05-09T02:25:54.270Z,77.04
2023-05-09T02:28:23.646Z,76.10
2023-05-09T02:30:51.621Z,76.53
2023-05-09T02:33:18.610Z,76.01
2023-05-09T02:35:46.598Z,76.44
2023-05-09T02:38:15.497Z,76.73
2023-05-09T02:40:44.440Z,76.38
2023-05-09T02:43:11.646Z,76.28
2023-05-09T02:45:38.723Z,76.54
2023-05-09T02:48:08.757Z,75.79
2023-05-09T02:50:38.472Z,75.35
2023-05-09T02:53:06.232Z,76.74
2023-05-09T02:55:34.625Z,76.19
2023-05-09T02:58:11.988Z,76.25
2023-05-09T03:00:41.416Z,76.72
2023-05-09T03:03:09.004Z,76.65
2023-05-09T03:05:36.045Z,75.51
2023-05-09T03:08:03.058Z,76.03
2023-05-09T03:10:30.483Z,74.49
2023-05-09T03:12:58.744Z,74.55
2023-05-09T03:15:25.510Z,74.31
2023-05-09T03:17:52.493Z,74.08
2023-05-09T03:20:21.701Z,74.09
2023-05-09T03:22:49.558Z,74.21
2023-05-09T03:25:17.176Z,74.30
2023-05-09T03:27:44.659Z,74.57
2023-05-09T03:30:16.477Z,74.03
2023-05-09T03:32:45.838Z,74.11
2023-05-09T03:35:13.225Z,74.17
2023-05-09T03:37:40.585Z,74.15
2023-05-09T03:40:09.186Z,74.53
2023-05-09T03:42:42.643Z,74.13
2023-05-09T03:45:11.141Z,74.40
2023-05-09T03:47:39.613Z,74.50
2023-05-09T03:50:07.134Z,74.78
2023-05-09T03:52:37.265Z,74.64
2023-05-09T03:55:06.000Z,74.93
2023-05-09T03:57:35.886Z,75.16
2023-05-09T04:00:04.966Z,74.47
2023-05-09T04:02:42.354Z,75.31
2023-05-09T04:05:17.463Z,75.78
2023-05-09T04:07:45.582Z,75.71
2023-05-09T04:10:12.719Z,75.39
2023-05-09T04:12:39.785Z,74.52
2023-05-09T04:15:08.325Z,75.64
2023-05-09T04:17:36.095Z,75.48
2023-05-09T04:20:06.673Z,74.08
2023-05-09T04:22:33.614Z,75.56
2023-05-09T04:25:01.043Z,75.08
2023-05-09T04:27:28.344Z,72.76
2023-05-09T04:29:55.865Z,73.30
2023-05-09T04:32:23.355Z,71.82
2023-05-09T04:34:50.944Z,71.32
2023-05-09T04:37:23.751Z,72.58
2023-05-09T04:39:50.864Z,71.83
2023-05-09T04:42:26.258Z,71.38
2023-05-09T04:44:53.435Z,70.39
2023-05-09T04:47:22.061Z,71.34
2023-05-09T04:49:48.974Z,70.17
2023-05-09T04:52:16.853Z,70.49
2023-05-09T04:54:45.188Z,69.58
2023-05-09T04:57:18.059Z,68.29
2023-05-09T04:59:50.715Z,68.02
2023-05-09T05:02:18.708Z,68.00
2023-05-09T05:04:47.352Z,67.46
2023-05-09T05:07:14.990Z,67.29
2023-05-09T05:09:45.607Z,67.47
2023-05-09T05:12:12.489Z,67.78
2023-05-09T05:14:41.273Z,67.03
2023-05-09T05:17:10.152Z,66.61
2023-05-09T05:19:37.076Z,66.38
2023-05-09T05:22:06.007Z,66.45
2023-05-09T05:24:33.885Z,67.21
2023-05-09T05:27:03.234Z,66.66
2023-05-09T05:29:30.089Z,66.83
2023-05-09T05:31:57.094Z,66.44
2023-05-09T05:34:24.175Z,66.38
2023-05-09T05:36:51.558Z,66.79
2023-05-09T05:39:18.686Z,66.84
2023-05-09T05:41:45.618Z,67.26
2023-05-09T05:44:13.943Z,67.42
2023-05-09T05:46:41.422Z,66.84
2023-05-09T05:49:08.417Z,66.06
2023-05-09T05:51:35.372Z,65.56
2023-05-09T05:54:03.386Z,66.42
2023-05-09T05:56:30.829Z,66.81
2023-05-09T05:58:58.205Z,66.71
2023-05-09T06:01:26.820Z,67.34
2023-05-09T06:03:56.078Z,67.77
2023-05-09T06:06:26.691Z,68.16
2023-05-09T06:08:55.485Z,67.18
2023-05-09T06:11:23.507Z,67.87
2023-05-09T06:13:50.400Z,67.35
2023-05-09T06:16:19.855Z,67.69
2023-05-09T06:18:53.334Z,68.32
2023-05-09T06:21:21.979Z,73.60
2023-05-09T06:24:05.095Z,67.03
2023-05-09T06:26:35.544Z,70.35
2023-05-09T06:29:02.392Z,65.81
2023-05-09T06:31:29.888Z,63.39
2023-05-09T06:33:58.292Z,63.42
2023-05-09T06:36:24.946Z,63.62
2023-05-09T06:38:51.928Z,63.84
2023-05-09T06:41:18.811Z,64.78
2023-05-09T06:43:45.797Z,65.14
2023-05-09T06:46:12.700Z,63.90
2023-05-09T06:48:39.720Z,63.95
2023-05-09T06:51:08.371Z,65.02
2023-05-09T06:53:35.261Z,64.51
2023-05-09T06:56:02.177Z,64.50
2023-05-09T06:58:29.262Z,64.65
2023-05-09T07:00:56.236Z,64.79
2023-05-09T07:03:23.934Z,64.88
2023-05-09T07:05:52.461Z,64.54
2023-05-09T07:08:20.732Z,64.36
2023-05-09T07:10:47.467Z,64.37
2023-05-09T07:13:14.403Z,64.74
2023-05-09T07:15:42.998Z,65.46
2023-05-09T07:18:10.487Z,65.57
2023-05-09T07:20:37.433Z,65.86
2023-05-09T07:23:04.407Z,64.81
2023-05-09T07:25:32.738Z,65.19
2023-05-09T07:28:00.196Z,65.18
2023-05-09T07:30:27.316Z,64.52
2023-05-09T07:32:54.219Z,65.03
2023-05-09T07:35:21.572Z,63.68
2023-05-09T07:37:48.510Z,63.02
2023-05-09T07:40:15.920Z,63.17
2023-05-09T07:42:50.082Z,62.66
2023-05-09T07:45:18.822Z,62.88
2023-05-09T07:47:47.001Z,62.14
2023-05-09T07:50:13.951Z,62.25
2023-05-09T07:52:40.933Z,61.44
2023-05-09T07:55:08.543Z,61.32
2023-05-09T07:57:35.997Z,61.50
2023-05-09T08:00:06.462Z,61.24
2023-05-09T08:02:40.625Z,61.13
2023-05-09T08:05:11.501Z,61.18
2023-05-09T08:07:39.338Z,59.41
2023-05-09T08:10:07.552Z,59.95
2023-05-09T08:12:34.224Z,60.39
2023-05-09T08:15:01.220Z,59.95
2023-05-09T08:17:29.601Z,59.40
2023-05-09T08:19:56.615Z,58.72
2023-05-09T08:22:24.720Z,57.92
2023-05-09T08:24:51.683Z,57.52
2023-05-09T08:27:18.582Z,58.39
2023-05-09T08:29:45.507Z,59.01
2023-05-09T08:32:12.659Z,58.78
2023-05-09T08:34:41.071Z,58.72
2023-05-09T08:37:08.063Z,61.58
2023-05-09T08:39:35.355Z,63.08
2023-05-09T08:42:02.960Z,62.17
2023-05-09T08:44:31.349Z,62.12
2023-05-09T08:47:00.727Z,61.74
2023-05-09T08:49:28.192Z,61.88
2023-05-09T08:51:57.046Z,63.47
2023-05-09T08:54:24.725Z,62.92
2023-05-09T08:56:51.807Z,64.38
2023-05-09T08:59:19.505Z,65.33
2023-05-09T09:01:46.799Z,64.01
2023-05-09T09:04:13.822Z,66.01
2023-05-09T09:06:41.059Z,65.98
2023-05-09T09:09:09.567Z,65.86
2023-05-09T09:11:37.739Z,64.48
2023-05-09T09:14:07.461Z,65.41
2023-05-09T09:16:36.282Z,65.15
2023-05-09T09:19:05.634Z,65.49
2023-05-09T09:21:33.013Z,64.82
2023-05-09T09:24:00.500Z,65.00
2023-05-09T09:26:31.748Z,65.04
2023-05-09T09:28:58.726Z,66.10
2023-05-09T09:31:28.536Z,65.70
2023-05-09T09:33:59.504Z,66.17
2023-05-09T09:36:27.788Z,66.31
2023-05-09T09:38:57.838Z,65.94
2023-05-09T09:41:32.153Z,66.52
2023-05-09T09:43:59.170Z,66.41
2023-05-09T09:46:26.305Z,66.50
2023-05-09T09:48:56.784Z,66.36
2023-05-09T09:51:27.679Z,66.13
2023-05-09T09:53:54.584Z,66.17
2023-05-09T09:56:22.285Z,66.84
2023-05-09T09:58:50.596Z,66.92
2023-05-09T10:01:17.318Z,67.26
2023-05-09T10:03:45.927Z,67.33
2023-05-09T10:06:13.922Z,67.49
2023-05-09T10:08:41.177Z,66.87
2023-05-09T10:11:08.857Z,66.23
2023-05-09T10:13:36.611Z,65.69
2023-05-09T10:16:06.217Z,66.43
2023-05-09T10:18:33.932Z,67.53
2023-05-09T10:21:02.786Z,68.02
2023-05-09T10:23:31.423Z,67.42
2023-05-09T10:26:06.745Z,67.75
2023-05-09T10:28:35.906Z,67.49
2023-05-09T10:31:12.891Z,66.89
2023-05-09T10:33:43.608Z,66.98
2023-05-09T10:36:10.917Z,66.79
2023-05-09T10:38:37.861Z,67.28
2023-05-09T10:41:05.576Z,66.90
2023-05-09T10:43:36.125Z,66.65
2023-05-09T10:46:03.959Z,65.65
2023-05-09T10:48:51.184Z,66.34
2023-05-09T10:51:18.345Z,66.34
2023-05-09T10:53:46.640Z,66.05
2023-05-09T10:56:24.123Z,65.94
2023-05-09T10:58:51.004Z,65.70
2023-05-09T11:01:30.586Z,65.17
2023-05-09T11:04:00.253Z,65.90
2023-05-09T11:06:46.250Z,65.60
2023-05-09T11:09:34.656Z,65.99
2023-05-09T11:12:09.193Z,66.59
2023-05-09T11:14:42.385Z,66.68
2023-05-09T11:17:11.091Z,65.99
2023-05-09T11:20:01.912Z,65.72
2023-05-09T11:22:30.840Z,65.46
2023-05-09T11:25:04.612Z,65.24
2023-05-09T11:27:42.481Z,64.01
2023-05-09T11:30:11.154Z,63.76
2023-05-09T11:32:44.056Z,63.48
2023-05-09T11:35:17.899Z,63.02
2023-05-09T11:37:49.794Z,63.75
2023-05-09T11:40:17.657Z,63.33
2023-05-09T11:42:45.672Z,64.35
2023-05-09T11:45:15.750Z,64.03
2023-05-09T11:47:43.097Z,63.55
2023-05-09T11:50:13.372Z,63.54
2023-05-09T11:52:40.721Z,63.63
2023-05-09T11:55:10.927Z,63.32
2023-05-09T11:57:40.881Z,63.93
2023-05-09T12:00:10.427Z,64.46
2023-05-09T12:02:37.860Z,64.13
2023-05-09T12:05:09.458Z,64.64
2023-05-09T12:07:39.514Z,65.03
2023-05-09T12:10:08.693Z,65.03
2023-05-09T12:12:36.356Z,65.13
2023-05-09T12:15:04.768Z,65.35
2023-05-09T12:17:32.034Z,65.38
2023-05-09T12:20:00.352Z,65.66
2023-05-09T12:22:27.643Z,65.99
2023-05-09T12:24:56.147Z,66.67
2023-05-09T12:27:23.307Z,66.67
2023-05-09T12:29:50.906Z,67.29
2023-05-09T12:32:18.501Z,67.41
2023-05-09T12:34:47.743Z,67.86
2023-05-09T12:37:16.807Z,67.86
2023-05-09T12:39:44.675Z,67.54
2023-05-09T12:42:15.794Z,67.69
2023-05-09T12:44:49.193Z,68.91
2023-05-09T12:47:16.325Z,70.10
2023-05-09T12:49:43.298Z,70.20
2023-05-09T12:52:18.179Z,71.47
2023-05-09T12:54:46.341Z,71.01
2023-05-09T12:57:22.912Z,71.36
2023-05-09T12:59:50.150Z,71.38
2023-05-09T13:02:17.787Z,72.26
2023-05-09T13:04:44.864Z,72.22
2023-05-09T13:07:11.827Z,71.64
2023-05-09T13:09:54.471Z,71.92
2023-05-09T13:12:23.212Z,70.49
2023-05-09T13:14:50.240Z,70.21
2023-05-09T13:17:17.170Z,69.10
2023-05-09T13:19:44.045Z,69.47
2023-05-09T13:22:12.354Z,69.68
2023-05-09T13:24:39.516Z,68.46
2023-05-09T13:27:06.474Z,67.81
2023-05-09T13:29:34.761Z,67.57
2023-05-09T13:32:01.746Z,67.71
2023-05-09T13:34:28.790Z,68.19
2023-05-09T13:36:55.710Z,68.64
2023-05-09T13:39:22.720Z,68.33
2023-05-09T13:41:51.320Z,68.14
2023-05-09T13:44:18.361Z,68.06
2023-05-09T13:46:46.936Z,67.91
2023-05-09T13:49:13.930Z,67.22
2023-05-09T13:51:41.112Z,67.75
2023-05-09T13:54:27.004Z,66.80
2023-05-09T13:56:53.951Z,66.85
2023-05-09T13:59:20.878Z,66.18
2023-05-09T14:01:49.208Z,66.84
2023-05-09T14:04:16.334Z,66.75
2023-05-09T14:06:48.182Z,66.43
2023-05-09T14:09:15.744Z,67.35
2023-05-09T14:11:42.848Z,66.71
2023-05-09T14:14:09.837Z,66.73
2023-05-09T14:16:36.781Z,66.95
2023-05-09T14:19:05.107Z,67.55
2023-05-09T14:21:32.042Z,67.52
2023-05-09T14:23:59.011Z,68.02
2023-05-09T14:26:26.746Z,67.57
2023-05-09T14:28:54.132Z,67.69
2023-05-09T14:31:21.172Z,68.12
2023-05-09T14:33:48.129Z,68.51
2023-05-09T14:36:16.761Z,67.64
2023-05-09T14:38:44.306Z,67.49
2023-05-09T14:41:11.388Z,69.01
2023-05-09T14:43:38.304Z,68.02
2023-05-09T14:46:05.599Z,67.70
2023-05-09T14:48:32.845Z,68.41
2023-05-09T14:51:00.266Z,68.97
2023-05-09T14:53:28.754Z,68.57
2023-05-09T14:55:56.112Z,68.72
2023-05-09T14:58:23.646Z,69.15
2023-05-09T15:00:50.812Z,68.52
2023-05-09T15:03:17.972Z,68.31
2023-05-09T15:05:44.972Z,68.70
2023-05-09T15:08:11.936Z,68.81
2023-05-09T15:10:40.376Z,69.38
2023-05-09T15:13:07.723Z,68.36
2023-05-09T15:15:34.710Z,68.93
2023-05-09T15:18:02.621Z,69.17
2023-05-09T15:20:29.612Z,68.07
2023-05-09T15:22:56.619Z,67.97
2023-05-09T15:25:23.701Z,68.37
2023-05-09T15:27:51.942Z,69.30
2023-05-09T15:30:18.985Z,69.42
2023-05-09T15:32:46.052Z,69.60
2023-05-09T15:35:13.733Z,69.05
2023-05-09T15:37:40.629Z,68.79
2023-05-09T15:40:09.288Z,68.98
2023-05-09T15:42:36.574Z,68.99
2023-05-09T15:45:05.521Z,69.67
2023-05-09T15:47:32.715Z,68.69
2023-05-09T15:49:59.688Z,68.23
2023-05-09T15:52:27.837Z,69.20
2023-05-09T15:54:55.007Z,70.41
2023-05-09T15:57:22.065Z,71.24
2023-05-09T15:59:48.983Z,70.31
2023-05-09T16:02:17.400Z,70.74
2023-05-09T16:04:44.426Z,70.42
2023-05-09T16:07:11.636Z,71.31
2023-05-09T16:09:38.660Z,71.88
2023-05-09T16:12:05.780Z,71.19
2023-05-09T16:14:32.775Z,71.60
2023-05-09T16:16:59.731Z,71.70
2023-05-09T16:19:27.998Z,71.99
2023-05-09T16:21:55.003Z,72.03
2023-05-09T16:24:21.990Z,71.85
2023-05-09T16:26:48.884Z,71.24
2023-05-09T16:29:15.813Z,72.55
2023-05-09T16:31:44.955Z,71.73
2023-05-09T16:34:12.093Z,72.21
2023-05-09T16:36:40.446Z,71.82
2023-05-09T16:39:07.580Z,71.08
2023-05-09T16:41:34.875Z,72.34
2023-05-09T16:44:01.740Z,72.42
2023-05-09T16:46:28.678Z,72.69
2023-05-09T16:48:55.857Z,72.55
2023-05-09T16:51:22.825Z,73.35
2023-05-09T16:53:51.237Z,72.85
2023-05-09T16:56:18.072Z,73.00
2023-05-09T16:58:44.992Z,73.67
2023-05-09T17:01:12.064Z,74.17
2023-05-09T17:03:38.982Z,74.35
2023-05-09T17:06:06.530Z,74.46
2023-05-09T17:08:33.433Z,75.14
2023-05-09T17:11:01.701Z,75.50
2023-05-09T17:13:28.658Z,75.91
2023-05-09T17:15:55.913Z,76.11
2023-05-09T17:18:35.896Z,76.60
2023-05-09T17:21:04.551Z,76.34
2023-05-09T17:23:31.938Z,76.28
2023-05-09T17:25:58.845Z,77.32
2023-05-09T17:28:27.204Z,77.53
2023-05-09T17:30:54.143Z,77.14
2023-05-09T17:33:21.341Z,78.07
2023-05-09T17:35:49.655Z,78.22
2023-05-09T17:38:16.792Z,78.06
2023-05-09T17:40:44.272Z,78.13
2023-05-09T17:43:11.172Z,78.09
2023-05-09T17:45:39.627Z,78.02
2023-05-09T17:48:07.244Z,78.50
2023-05-09T17:50:34.466Z,78.51
2023-05-09T17:53:01.488Z,78.73
2023-05-09T17:55:28.901Z,78.77
2023-05-09T17:57:55.756Z,79.36
2023-05-09T18:00:22.714Z,78.30
2023-05-09T18:02:51.630Z,79.28
2023-05-09T18:05:18.753Z,79.69
2023-05-09T18:07:45.683Z,79.33
2023-05-09T18:10:12.986Z,80.30
2023-05-09T18:12:40.231Z,80.23
2023-05-09T18:15:08.435Z,80.68
2023-05-09T18:17:35.483Z,81.00
2023-05-09T18:20:04.834Z,81.04
2023-05-09T18:22:31.950Z,81.21
2023-05-09T18:24:59.141Z,81.34
2023-05-09T18:27:26.116Z,81.06
2023-05-09T18:29:52.982Z,81.67
2023-05-09T18:32:20.732Z,81.57
2023-05-09T18:34:48.587Z,81.31
2023-05-09T18:37:17.668Z,81.15
2023-05-09T18:39:44.917Z,80.71
2023-05-09T18:42:12.933Z,81.00
2023-05-09T18:44:41.577Z,80.38
2023-05-09T18:47:08.577Z,80.81
2023-05-09T18:49:35.590Z,81.19
2023-05-09T18:52:02.662Z,81.24
2023-05-09T18:54:31.068Z,81.46
2023-05-09T18:56:58.117Z,81.64
2023-05-09T18:59:25.047Z,81.47
2023-05-09T19:01:52.072Z,82.04
2023-05-09T19:04:19.618Z,82.51
2023-05-09T19:06:46.930Z,82.90
2023-05-09T19:09:13.955Z,82.08
2023-05-09T19:11:42.340Z,82.70
2023-05-09T19:14:09.323Z,82.26
2023-05-09T19:16:36.314Z,82.19
2023-05-09T19:19:03.310Z,82.35
2023-05-09T19:21:30.346Z,82.51
2023-05-09T19:23:57.270Z,82.01
2023-05-09T19:26:24.193Z,81.70
2023-05-09T19:28:52.558Z,82.10
2023-05-09T19:31:20.562Z,82.06
2023-05-09T19:33:50.133Z,82.71
2023-05-09T19:36:18.381Z,81.86
2023-05-09T19:38:45.555Z,81.95
2023-05-09T19:41:13.959Z,82.54
2023-05-09T19:43:41.076Z,82.62
2023-05-09T19:46:09.482Z,82.91
2023-05-09T19:48:36.474Z,82.85
2023-05-09T19:51:04.124Z,83.28
2023-05-09T19:53:31.033Z,82.87
2023-05-09T19:55:57.992Z,82.87
2023-05-09T19:58:24.838Z,83.30
2023-05-09T20:00:51.965Z,83.22
2023-05-09T20:03:20.504Z,82.58
2023-05-09T20:05:47.504Z,83.16
2023-05-09T20:08:14.497Z,83.16
2023-05-09T20:10:41.363Z,83.35
2023-05-09T20:13:08.543Z,83.63
2023-05-09T20:15:35.496Z,83.64
2023-05-09T20:18:03.725Z,83.62
2023-05-09T20:20:32.283Z,83.96
2023-05-09T20:22:59.155Z,84.06
2023-05-09T20:25:26.112Z,83.82
2023-05-09T20:27:53.018Z,83.62
2023-05-09T20:30:20.058Z,84.08
2023-05-09T20:32:47.044Z,84.20
2023-05-09T20:35:13.997Z,84.08
2023-05-09T20:37:42.282Z,84.15
2023-05-09T20:40:10.323Z,83.82
2023-05-09T20:42:37.923Z,83.92
2023-05-09T20:45:05.470Z,83.88
2023-05-09T20:47:32.647Z,83.79
2023-05-09T20:49:59.687Z,83.93
2023-05-09T20:52:26.760Z,83.56
2023-05-09T20:54:55.077Z,83.93
2023-05-09T20:57:22.095Z,83.86
2023-05-09T20:59:48.997Z,84.28
2023-05-09T21:02:15.936Z,84.23
2023-05-09T21:04:42.985Z,84.46
2023-05-09T21:07:10.061Z,84.12
2023-05-09T21:09:37.109Z,84.18
2023-05-09T21:12:05.960Z,84.58
2023-05-09T21:14:32.919Z,84.45
2023-05-09T21:17:00.059Z,84.37
2023-05-09T21:19:27.801Z,83.93
2023-05-09T21:21:54.793Z,84.38
2023-05-09T21:24:21.680Z,84.26
2023-05-09T21:26:48.638Z,84.46
2023-05-09T21:29:16.966Z,84.79
2023-05-09T21:31:44.034Z,84.26
2023-05-09T21:34:10.995Z,84.80
2023-05-09T21:36:41.008Z,84.43
2023-05-09T21:39:11.757Z,84.87
2023-05-09T21:41:40.042Z,84.56
2023-05-09T21:44:11.349Z,84.65
2023-05-09T21:46:40.025Z,84.96
2023-05-09T21:49:07.094Z,85.08
2023-05-09T21:51:34.268Z,84.67
2023-05-09T21:54:01.360Z,84.89
2023-05-09T21:56:28.420Z,85.02
2023-05-09T21:58:55.503Z,84.75
2023-05-09T22:01:22.543Z,85.21
2023-05-09T22:03:51.613Z,85.10
2023-05-09T22:06:18.673Z,84.96
2023-05-09T22:08:45.814Z,84.67
2023-05-09T22:11:14.235Z,84.83
2023-05-09T22:13:42.538Z,85.12
2023-05-09T22:16:09.447Z,84.61
2023-05-09T22:18:36.419Z,84.88
2023-05-09T22:21:05.556Z,85.10
2023-05-09T22:23:32.422Z,84.96
2023-05-09T22:25:59.381Z,85.10
2023-05-09T22:28:27.464Z,84.99
2023-05-09T22:30:54.353Z,85.06
2023-05-09T22:33:21.381Z,84.86
2023-05-09T22:35:48.257Z,85.01
2023-05-09T22:38:16.568Z,84.75
2023-05-09T22:40:43.759Z,84.54
2023-05-09T22:43:11.212Z,84.64
2023-05-09T22:45:38.296Z,84.50
2023-05-09T22:48:06.052Z,84.14
2023-05-09T22:50:32.977Z,84.62
2023-05-09T22:53:00.256Z,84.46
2023-05-09T22:55:28.800Z,84.57
2023-05-09T22:57:55.826Z,84.64
2023-05-09T23:00:22.845Z,84.12
2023-05-09T23:02:49.954Z,84.17
2023-05-09T23:05:16.987Z,84.00
2023-05-09T23:07:44.435Z,84.03
2023-05-09T23:10:11.503Z,83.96
2023-05-09T23:12:39.828Z,83.78
2023-05-09T23:15:07.941Z,83.79
2023-05-09T23:17:34.956Z,83.45
2023-05-09T23:20:01.964Z,83.97
2023-05-09T23:22:29.091Z,83.79
2023-05-09T23:24:56.091Z,84.20
2023-05-09T23:27:23.055Z,83.98
2023-05-09T23:29:51.443Z,83.78
2023-05-09T23:32:18.346Z,83.82
2023-05-09T23:34:45.478Z,83.55
2023-05-09T23:37:12.483Z,83.37
2023-05-09T23:39:39.447Z,83.42
2023-05-09T23:42:06.398Z,83.55
2023-05-09T23:44:33.445Z,83.88
2023-05-09T23:47:02.321Z,83.69
2023-05-09T23:49:29.225Z,83.54
2023-05-09T23:51:56.099Z,84.44
2023-05-09T23:54:24.631Z,84.34
2023-05-09T23:56:51.671Z,84.20
2023-05-09T23:59:18.656Z,83.70
